sensor_id;sensor_type;location;lat;lon;timestamp;P1;durP1;ratioP1;P2;durP2;ratioP2
22549;SDS011;11441;57.164;-2.120;2023-09-19T00:00:44;1.65;;;0.30;;
22549;SDS011;11441;57.164;-2.120;2023-09-19T00:03:14;1.25;;;0.30;;
22549;SDS011;11441;57.164;-2.120;2023-09-19T00:05:41;2.03;;;0.40;;
22549;SDS011;11441;57.164;-2.120;2023-09-19T00:08:12;1.25;;;0.30;;
22549;SDS011;11441;57.164;-2.120;2023-09-19T00:10:43;3.15;;;0.50;;
22549;SDS011;11441;57.164;-2.120;2023-09-19T00:13:10;2.00;;;0.45;;
22549;SDS011;11441;57.164;-2.120;2023-09-19T00:15:43;3.63;;;0.52;;
22549;SDS011;11441;57.164;-2.120;2023-09-19T00:18:18;1.60;;;0.30;;
22549;SDS011;11441;57.164;-2.120;2023-09-19T00:20:48;1.92;;;0.40;;
22549;SDS011;11441;57.164;-2.120;2023-09-19T00:23:18;2.08;;;0.40;;
22549;SDS011;11441;57.164;-2.120;2023-09-19T00:25:46;1.08;;;0.30;;
22549;SDS011;11441;57.164;-2.120;2023-09-19T00:28:13;3.75;;;0.60;;
22549;SDS011;11441;57.164;-2.120;2023-09-19T00:30:42;2.75;;;0.32;;
22549;SDS011;11441;57.164;-2.120;2023-09-19T00:33:10;1.88;;;0.60;;
22549;SDS011;11441;57.164;-2.120;2023-09-19T00:35:49;2.65;;;0.57;;
22549;SDS011;11441;57.164;-2.120;2023-09-19T00:38:20;3.85;;;0.93;;
22549;SDS011;11441;57.164;-2.120;2023-09-19T00:40:49;2.28;;;0.95;;
22549;SDS011;11441;57.164;-2.120;2023-09-19T00:43:17;0.75;;;0.40;;
22549;SDS011;11441;57.164;-2.120;2023-09-19T00:45:45;3.13;;;0.35;;
22549;SDS011;11441;57.164;-2.120;2023-09-19T00:48:15;3.38;;;0.50;;
22549;SDS011;11441;57.164;-2.120;2023-09-19T00:50:44;0.65;;;0.43;;
22549;SDS011;11441;57.164;-2.120;2023-09-19T00:53:15;2.67;;;0.50;;
22549;SDS011;11441;57.164;-2.120;2023-09-19T00:55:46;2.28;;;0.43;;
22549;SDS011;11441;57.164;-2.120;2023-09-19T00:58:19;3.55;;;0.57;;
22549;SDS011;11441;57.164;-2.120;2023-09-19T01:00:48;1.42;;;0.50;;
22549;SDS011;11441;57.164;-2.120;2023-09-19T01:03:15;1.13;;;0.52;;
22549;SDS011;11441;57.164;-2.120;2023-09-19T01:05:45;1.13;;;0.60;;
22549;SDS011;11441;57.164;-2.120;2023-09-19T01:08:12;1.80;;;0.40;;
22549;SDS011;11441;57.164;-2.120;2023-09-19T01:10:41;1.02;;;0.68;;
22549;SDS011;11441;57.164;-2.120;2023-09-19T01:16:11;1.65;;;0.40;;
22549;SDS011;11441;57.164;-2.120;2023-09-19T01:24:44;1.48;;;0.30;;
22549;SDS011;11441;57.164;-2.120;2023-09-19T01:29:47;3.13;;;0.50;;
22549;SDS011;11441;57.164;-2.120;2023-09-19T01:32:19;2.05;;;0.30;;
22549;SDS011;11441;57.164;-2.120;2023-09-19T01:34:51;2.55;;;0.60;;
22549;SDS011;11441;57.164;-2.120;2023-09-19T01:37:20;2.58;;;0.30;;
22549;SDS011;11441;57.164;-2.120;2023-09-19T01:39:53;1.55;;;0.32;;
22549;SDS011;11441;57.164;-2.120;2023-09-19T01:42:39;1.00;;;0.45;;
22549;SDS011;11441;57.164;-2.120;2023-09-19T01:45:13;2.38;;;0.30;;
22549;SDS011;11441;57.164;-2.120;2023-09-19T01:48:01;1.75;;;0.35;;
22549;SDS011;11441;57.164;-2.120;2023-09-19T01:50:42;2.90;;;0.60;;
22549;SDS011;11441;57.164;-2.120;2023-09-19T01:53:18;0.68;;;0.40;;
22549;SDS011;11441;57.164;-2.120;2023-09-19T01:55:50;1.60;;;0.68;;
22549;SDS011;11441;57.164;-2.120;2023-09-19T02:01:21;2.53;;;0.35;;
22549;SDS011;11441;57.164;-2.120;2023-09-19T02:03:50;1.45;;;0.50;;
22549;SDS011;11441;57.164;-2.120;2023-09-19T02:06:18;0.50;;;0.30;;
22549;SDS011;11441;57.164;-2.120;2023-09-19T02:08:45;1.83;;;0.47;;
22549;SDS011;11441;57.164;-2.120;2023-09-19T02:11:13;2.08;;;0.30;;
22549;SDS011;11441;57.164;-2.120;2023-09-19T02:13:40;2.03;;;0.40;;
22549;SDS011;11441;57.164;-2.120;2023-09-19T02:16:09;1.67;;;0.52;;
22549;SDS011;11441;57.164;-2.120;2023-09-19T02:18:38;1.17;;;0.30;;
22549;SDS011;11441;57.164;-2.120;2023-09-19T02:21:05;1.70;;;0.40;;
22549;SDS011;11441;57.164;-2.120;2023-09-19T02:23:39;1.55;;;0.47;;
22549;SDS011;11441;57.164;-2.120;2023-09-19T02:26:06;2.55;;;0.40;;
22549;SDS011;11441;57.164;-2.120;2023-09-19T02:28:33;4.60;;;0.63;;
22549;SDS011;11441;57.164;-2.120;2023-09-19T02:31:01;2.63;;;0.30;;
22549;SDS011;11441;57.164;-2.120;2023-09-19T02:33:28;0.82;;;0.30;;
22549;SDS011;11441;57.164;-2.120;2023-09-19T02:36:02;4.05;;;0.35;;
22549;SDS011;11441;57.164;-2.120;2023-09-19T02:38:30;0.75;;;0.30;;
22549;SDS011;11441;57.164;-2.120;2023-09-19T02:40:57;0.90;;;0.38;;
22549;SDS011;11441;57.164;-2.120;2023-09-19T02:43:24;2.90;;;0.50;;
22549;SDS011;11441;57.164;-2.120;2023-09-19T02:45:51;2.03;;;0.50;;
22549;SDS011;11441;57.164;-2.120;2023-09-19T02:48:21;1.33;;;0.30;;
22549;SDS011;11441;57.164;-2.120;2023-09-19T02:50:51;1.58;;;0.30;;
22549;SDS011;11441;57.164;-2.120;2023-09-19T02:53:18;1.25;;;0.40;;
22549;SDS011;11441;57.164;-2.120;2023-09-19T02:55:48;0.90;;;0.60;;
22549;SDS011;11441;57.164;-2.120;2023-09-19T02:58:15;1.35;;;0.30;;
22549;SDS011;11441;57.164;-2.120;2023-09-19T03:00:43;2.85;;;0.55;;
22549;SDS011;11441;57.164;-2.120;2023-09-19T03:03:15;2.28;;;0.35;;
22549;SDS011;11441;57.164;-2.120;2023-09-19T03:05:43;2.33;;;0.30;;
22549;SDS011;11441;57.164;-2.120;2023-09-19T03:08:16;1.02;;;0.30;;
22549;SDS011;11441;57.164;-2.120;2023-09-19T03:10:46;1.33;;;0.40;;
22549;SDS011;11441;57.164;-2.120;2023-09-19T03:13:15;0.70;;;0.63;;
22549;SDS011;11441;57.164;-2.120;2023-09-19T03:15:42;1.83;;;0.40;;
22549;SDS011;11441;57.164;-2.120;2023-09-19T03:18:17;1.02;;;0.20;;
22549;SDS011;11441;57.164;-2.120;2023-09-19T03:20:52;0.57;;;0.20;;
22549;SDS011;11441;57.164;-2.120;2023-09-19T03:23:22;0.73;;;0.20;;
22549;SDS011;11441;57.164;-2.120;2023-09-19T03:25:50;0.43;;;0.25;;
22549;SDS011;11441;57.164;-2.120;2023-09-19T03:28:17;0.28;;;0.20;;
22549;SDS011;11441;57.164;-2.120;2023-09-19T03:30:44;0.95;;;0.38;;
22549;SDS011;11441;57.164;-2.120;2023-09-19T03:33:12;0.90;;;0.57;;
22549;SDS011;11441;57.164;-2.120;2023-09-19T03:35:40;0.80;;;0.38;;
22549;SDS011;11441;57.164;-2.120;2023-09-19T03:38:07;1.27;;;0.63;;
22549;SDS011;11441;57.164;-2.120;2023-09-19T03:40:33;2.27;;;0.43;;
22549;SDS011;11441;57.164;-2.120;2023-09-19T03:43:00;0.40;;;0.37;;
22549;SDS011;11441;57.164;-2.120;2023-09-19T03:45:28;2.17;;;0.30;;
22549;SDS011;11441;57.164;-2.120;2023-09-19T03:47:55;1.33;;;0.38;;
22549;SDS011;11441;57.164;-2.120;2023-09-19T03:50:23;2.50;;;0.22;;
22549;SDS011;11441;57.164;-2.120;2023-09-19T03:52:55;1.80;;;0.43;;
22549;SDS011;11441;57.164;-2.120;2023-09-19T03:55:22;5.30;;;0.70;;
22549;SDS011;11441;57.164;-2.120;2023-09-19T03:57:49;5.00;;;0.63;;
22549;SDS011;11441;57.164;-2.120;2023-09-19T04:00:17;1.33;;;0.40;;
22549;SDS011;11441;57.164;-2.120;2023-09-19T04:02:48;1.02;;;0.45;;
22549;SDS011;11441;57.164;-2.120;2023-09-19T04:05:15;1.70;;;0.50;;
22549;SDS011;11441;57.164;-2.120;2023-09-19T04:07:43;0.37;;;0.30;;
22549;SDS011;11441;57.164;-2.120;2023-09-19T04:10:10;0.70;;;0.30;;
22549;SDS011;11441;57.164;-2.120;2023-09-19T04:12:49;1.40;;;0.30;;
22549;SDS011;11441;57.164;-2.120;2023-09-19T04:15:21;0.80;;;0.50;;
22549;SDS011;11441;57.164;-2.120;2023-09-19T04:17:52;1.38;;;0.70;;
22549;SDS011;11441;57.164;-2.120;2023-09-19T04:20:19;1.00;;;0.23;;
22549;SDS011;11441;57.164;-2.120;2023-09-19T04:22:46;1.70;;;0.50;;
22549;SDS011;11441;57.164;-2.120;2023-09-19T04:25:14;2.20;;;0.30;;
22549;SDS011;11441;57.164;-2.120;2023-09-19T04:27:41;2.83;;;0.50;;
22549;SDS011;11441;57.164;-2.120;2023-09-19T04:30:10;1.27;;;0.33;;
22549;SDS011;11441;57.164;-2.120;2023-09-19T04:32:38;1.53;;;0.70;;
22549;SDS011;11441;57.164;-2.120;2023-09-19T04:35:08;2.95;;;0.35;;
22549;SDS011;11441;57.164;-2.120;2023-09-19T04:37:37;2.15;;;0.60;;
22549;SDS011;11441;57.164;-2.120;2023-09-19T04:40:06;4.32;;;0.88;;
22549;SDS011;11441;57.164;-2.120;2023-09-19T04:42:43;3.38;;;0.40;;
22549;SDS011;11441;57.164;-2.120;2023-09-19T04:45:10;1.65;;;0.50;;
22549;SDS011;11441;57.164;-2.120;2023-09-19T04:47:37;2.00;;;0.70;;
22549;SDS011;11441;57.164;-2.120;2023-09-19T04:50:10;3.33;;;0.40;;
22549;SDS011;11441;57.164;-2.120;2023-09-19T04:52:41;2.95;;;0.30;;
22549;SDS011;11441;57.164;-2.120;2023-09-19T04:55:14;4.78;;;1.10;;
22549;SDS011;11441;57.164;-2.120;2023-09-19T05:00:12;2.10;;;0.60;;
22549;SDS011;11441;57.164;-2.120;2023-09-19T05:02:41;2.10;;;0.50;;
22549;SDS011;11441;57.164;-2.120;2023-09-19T05:05:09;2.17;;;1.00;;
22549;SDS011;11441;57.164;-2.120;2023-09-19T05:07:41;4.30;;;0.80;;
22549;SDS011;11441;57.164;-2.120;2023-09-19T05:10:09;2.38;;;0.68;;
22549;SDS011;11441;57.164;-2.120;2023-09-19T05:12:36;3.50;;;0.67;;
22549;SDS011;11441;57.164;-2.120;2023-09-19T05:15:07;4.30;;;0.68;;
22549;SDS011;11441;57.164;-2.120;2023-09-19T05:17:34;7.60;;;1.00;;
22549;SDS011;11441;57.164;-2.120;2023-09-19T05:20:02;2.33;;;0.60;;
22549;SDS011;11441;57.164;-2.120;2023-09-19T05:22:32;6.25;;;1.00;;
22549;SDS011;11441;57.164;-2.120;2023-09-19T05:24:59;5.93;;;0.90;;
22549;SDS011;11441;57.164;-2.120;2023-09-19T05:27:26;1.33;;;0.63;;
22549;SDS011;11441;57.164;-2.120;2023-09-19T05:29:53;4.15;;;0.90;;
22549;SDS011;11441;57.164;-2.120;2023-09-19T05:32:22;2.13;;;0.75;;
22549;SDS011;11441;57.164;-2.120;2023-09-19T05:34:49;6.30;;;1.98;;
22549;SDS011;11441;57.164;-2.120;2023-09-19T05:37:19;4.90;;;1.33;;
22549;SDS011;11441;57.164;-2.120;2023-09-19T05:39:46;4.63;;;0.70;;
22549;SDS011;11441;57.164;-2.120;2023-09-19T05:42:13;6.00;;;0.90;;
22549;SDS011;11441;57.164;-2.120;2023-09-19T05:44:40;5.10;;;0.90;;
22549;SDS011;11441;57.164;-2.120;2023-09-19T05:47:07;2.80;;;0.60;;
22549;SDS011;11441;57.164;-2.120;2023-09-19T05:49:35;5.75;;;1.20;;
22549;SDS011;11441;57.164;-2.120;2023-09-19T05:52:07;4.32;;;0.75;;
22549;SDS011;11441;57.164;-2.120;2023-09-19T05:54:34;4.85;;;0.88;;
22549;SDS011;11441;57.164;-2.120;2023-09-19T05:57:01;2.13;;;0.70;;
22549;SDS011;11441;57.164;-2.120;2023-09-19T05:59:28;2.30;;;0.70;;
22549;SDS011;11441;57.164;-2.120;2023-09-19T06:01:55;1.83;;;0.80;;
22549;SDS011;11441;57.164;-2.120;2023-09-19T06:04:22;1.48;;;0.70;;
22549;SDS011;11441;57.164;-2.120;2023-09-19T06:06:49;3.33;;;0.70;;
22549;SDS011;11441;57.164;-2.120;2023-09-19T06:09:16;6.00;;;1.20;;
22549;SDS011;11441;57.164;-2.120;2023-09-19T06:11:43;4.82;;;1.85;;
22549;SDS011;11441;57.164;-2.120;2023-09-19T06:14:10;6.07;;;1.35;;
22549;SDS011;11441;57.164;-2.120;2023-09-19T06:16:38;2.08;;;0.85;;
22549;SDS011;11441;57.164;-2.120;2023-09-19T06:19:06;3.40;;;1.20;;
22549;SDS011;11441;57.164;-2.120;2023-09-19T06:21:35;5.03;;;1.30;;
22549;SDS011;11441;57.164;-2.120;2023-09-19T06:24:02;3.03;;;0.80;;
22549;SDS011;11441;57.164;-2.120;2023-09-19T06:26:29;3.13;;;0.70;;
22549;SDS011;11441;57.164;-2.120;2023-09-19T06:28:57;5.85;;;1.00;;
22549;SDS011;11441;57.164;-2.120;2023-09-19T06:31:26;5.97;;;1.38;;
22549;SDS011;11441;57.164;-2.120;2023-09-19T06:33:53;7.07;;;1.27;;
22549;SDS011;11441;57.164;-2.120;2023-09-19T06:36:20;3.25;;;0.75;;
22549;SDS011;11441;57.164;-2.120;2023-09-19T06:38:47;4.25;;;1.15;;
22549;SDS011;11441;57.164;-2.120;2023-09-19T06:41:17;2.53;;;1.15;;
22549;SDS011;11441;57.164;-2.120;2023-09-19T06:43:44;3.00;;;1.05;;
22549;SDS011;11441;57.164;-2.120;2023-09-19T06:46:11;5.30;;;0.98;;
22549;SDS011;11441;57.164;-2.120;2023-09-19T06:48:39;6.75;;;1.23;;
22549;SDS011;11441;57.164;-2.120;2023-09-19T06:51:06;4.78;;;0.95;;
22549;SDS011;11441;57.164;-2.120;2023-09-19T06:53:34;2.60;;;1.05;;
22549;SDS011;11441;57.164;-2.120;2023-09-19T06:56:02;3.97;;;1.13;;
22549;SDS011;11441;57.164;-2.120;2023-09-19T06:58:29;4.43;;;0.82;;
22549;SDS011;11441;57.164;-2.120;2023-09-19T07:00:58;4.03;;;0.90;;
22549;SDS011;11441;57.164;-2.120;2023-09-19T07:03:25;7.13;;;0.90;;
22549;SDS011;11441;57.164;-2.120;2023-09-19T07:05:53;3.10;;;0.75;;
22549;SDS011;11441;57.164;-2.120;2023-09-19T07:08:22;5.15;;;0.80;;
22549;SDS011;11441;57.164;-2.120;2023-09-19T07:10:49;1.27;;;0.70;;
22549;SDS011;11441;57.164;-2.120;2023-09-19T07:13:16;1.48;;;0.60;;
22549;SDS011;11441;57.164;-2.120;2023-09-19T07:15:43;3.97;;;0.95;;
22549;SDS011;11441;57.164;-2.120;2023-09-19T07:18:14;3.70;;;0.90;;
22549;SDS011;11441;57.164;-2.120;2023-09-19T07:20:44;2.03;;;0.63;;
22549;SDS011;11441;57.164;-2.120;2023-09-19T07:23:21;6.18;;;1.10;;
22549;SDS011;11441;57.164;-2.120;2023-09-19T07:25:50;4.65;;;0.90;;
22549;SDS011;11441;57.164;-2.120;2023-09-19T07:28:17;3.92;;;0.85;;
22549;SDS011;11441;57.164;-2.120;2023-09-19T07:30:44;4.05;;;1.05;;
22549;SDS011;11441;57.164;-2.120;2023-09-19T07:33:11;3.08;;;0.90;;
22549;SDS011;11441;57.164;-2.120;2023-09-19T07:35:38;3.58;;;0.88;;
22549;SDS011;11441;57.164;-2.120;2023-09-19T07:38:08;6.47;;;1.02;;
22549;SDS011;11441;57.164;-2.120;2023-09-19T07:40:38;4.15;;;0.70;;
22549;SDS011;11441;57.164;-2.120;2023-09-19T07:43:06;5.45;;;0.82;;
22549;SDS011;11441;57.164;-2.120;2023-09-19T07:45:33;1.20;;;0.55;;
22549;SDS011;11441;57.164;-2.120;2023-09-19T07:48:00;2.70;;;0.50;;
22549;SDS011;11441;57.164;-2.120;2023-09-19T07:50:30;4.00;;;0.52;;
22549;SDS011;11441;57.164;-2.120;2023-09-19T07:52:58;1.90;;;0.60;;
22549;SDS011;11441;57.164;-2.120;2023-09-19T07:55:25;5.70;;;0.50;;
22549;SDS011;11441;57.164;-2.120;2023-09-19T07:57:52;2.53;;;0.77;;
22549;SDS011;11441;57.164;-2.120;2023-09-19T08:00:19;7.57;;;0.80;;
22549;SDS011;11441;57.164;-2.120;2023-09-19T08:02:46;1.60;;;0.57;;
22549;SDS011;11441;57.164;-2.120;2023-09-19T08:05:24;2.58;;;0.55;;
22549;SDS011;11441;57.164;-2.120;2023-09-19T08:07:51;3.75;;;0.55;;
22549;SDS011;11441;57.164;-2.120;2023-09-19T08:10:19;2.53;;;0.38;;
22549;SDS011;11441;57.164;-2.120;2023-09-19T08:12:46;1.90;;;0.68;;
22549;SDS011;11441;57.164;-2.120;2023-09-19T08:15:14;1.88;;;0.50;;
22549;SDS011;11441;57.164;-2.120;2023-09-19T08:17:48;2.08;;;0.60;;
22549;SDS011;11441;57.164;-2.120;2023-09-19T08:20:15;0.80;;;0.50;;
22549;SDS011;11441;57.164;-2.120;2023-09-19T08:22:52;2.72;;;0.82;;
22549;SDS011;11441;57.164;-2.120;2023-09-19T08:25:23;3.10;;;1.02;;
22549;SDS011;11441;57.164;-2.120;2023-09-19T08:27:53;2.08;;;0.68;;
22549;SDS011;11441;57.164;-2.120;2023-09-19T08:30:24;1.25;;;0.30;;
22549;SDS011;11441;57.164;-2.120;2023-09-19T08:32:56;1.83;;;0.68;;
22549;SDS011;11441;57.164;-2.120;2023-09-19T08:35:25;4.20;;;0.98;;
22549;SDS011;11441;57.164;-2.120;2023-09-19T08:37:53;2.47;;;0.47;;
22549;SDS011;11441;57.164;-2.120;2023-09-19T08:40:20;1.52;;;0.43;;
22549;SDS011;11441;57.164;-2.120;2023-09-19T08:42:47;2.30;;;0.52;;
22549;SDS011;11441;57.164;-2.120;2023-09-19T08:45:15;2.40;;;0.65;;
22549;SDS011;11441;57.164;-2.120;2023-09-19T08:47:45;1.75;;;0.73;;
22549;SDS011;11441;57.164;-2.120;2023-09-19T08:50:33;1.85;;;0.63;;
22549;SDS011;11441;57.164;-2.120;2023-09-19T08:53:23;1.90;;;0.65;;
22549;SDS011;11441;57.164;-2.120;2023-09-19T08:56:05;2.40;;;0.57;;
22549;SDS011;11441;57.164;-2.120;2023-09-19T08:58:43;2.75;;;0.55;;
22549;SDS011;11441;57.164;-2.120;2023-09-19T09:01:17;0.40;;;0.25;;
22549;SDS011;11441;57.164;-2.120;2023-09-19T09:03:52;0.95;;;0.30;;
22549;SDS011;11441;57.164;-2.120;2023-09-19T09:06:20;0.32;;;0.20;;
22549;SDS011;11441;57.164;-2.120;2023-09-19T09:08:47;0.98;;;0.30;;
22549;SDS011;11441;57.164;-2.120;2023-09-19T09:11:15;0.30;;;0.30;;
22549;SDS011;11441;57.164;-2.120;2023-09-19T09:13:43;1.05;;;0.38;;
22549;SDS011;11441;57.164;-2.120;2023-09-19T09:16:14;1.92;;;0.40;;
22549;SDS011;11441;57.164;-2.120;2023-09-19T09:18:46;5.20;;;0.40;;
22549;SDS011;11441;57.164;-2.120;2023-09-19T09:21:20;0.73;;;0.50;;
22549;SDS011;11441;57.164;-2.120;2023-09-19T09:23:49;1.23;;;0.40;;
22549;SDS011;11441;57.164;-2.120;2023-09-19T09:26:24;1.00;;;0.32;;
22549;SDS011;11441;57.164;-2.120;2023-09-19T09:29:09;1.05;;;0.30;;
22549;SDS011;11441;57.164;-2.120;2023-09-19T09:31:36;1.85;;;0.35;;
22549;SDS011;11441;57.164;-2.120;2023-09-19T09:34:04;4.70;;;0.70;;
22549;SDS011;11441;57.164;-2.120;2023-09-19T09:39:05;0.68;;;0.20;;
22549;SDS011;11441;57.164;-2.120;2023-09-19T09:41:52;1.23;;;0.50;;
22549;SDS011;11441;57.164;-2.120;2023-09-19T09:44:19;2.00;;;0.45;;
22549;SDS011;11441;57.164;-2.120;2023-09-19T09:46:46;1.85;;;0.50;;
22549;SDS011;11441;57.164;-2.120;2023-09-19T09:49:24;1.30;;;0.30;;
22549;SDS011;11441;57.164;-2.120;2023-09-19T09:52:05;0.65;;;0.30;;
22549;SDS011;11441;57.164;-2.120;2023-09-19T09:55:02;0.22;;;0.20;;
22549;SDS011;11441;57.164;-2.120;2023-09-19T09:57:34;0.73;;;0.40;;
22549;SDS011;11441;57.164;-2.120;2023-09-19T10:00:02;1.67;;;0.35;;
22549;SDS011;11441;57.164;-2.120;2023-09-19T10:02:55;0.93;;;0.40;;
22549;SDS011;11441;57.164;-2.120;2023-09-19T10:05:23;1.15;;;0.63;;
22549;SDS011;11441;57.164;-2.120;2023-09-19T10:08:10;0.50;;;0.30;;
22549;SDS011;11441;57.164;-2.120;2023-09-19T10:10:40;2.00;;;0.30;;
22549;SDS011;11441;57.164;-2.120;2023-09-19T10:13:13;0.65;;;0.28;;
22549;SDS011;11441;57.164;-2.120;2023-09-19T10:15:47;1.02;;;0.38;;
22549;SDS011;11441;57.164;-2.120;2023-09-19T10:18:26;0.82;;;0.30;;
22549;SDS011;11441;57.164;-2.120;2023-09-19T10:20:56;1.95;;;0.40;;
22549;SDS011;11441;57.164;-2.120;2023-09-19T10:23:26;1.65;;;0.20;;
22549;SDS011;11441;57.164;-2.120;2023-09-19T10:25:56;0.65;;;0.40;;
22549;SDS011;11441;57.164;-2.120;2023-09-19T10:28:27;0.57;;;0.20;;
22549;SDS011;11441;57.164;-2.120;2023-09-19T10:30:55;1.55;;;0.43;;
22549;SDS011;11441;57.164;-2.120;2023-09-19T10:33:24;1.98;;;0.55;;
22549;SDS011;11441;57.164;-2.120;2023-09-19T10:35:58;0.85;;;0.38;;
22549;SDS011;11441;57.164;-2.120;2023-09-19T10:38:27;0.30;;;0.30;;
22549;SDS011;11441;57.164;-2.120;2023-09-19T10:40:56;0.60;;;0.30;;
22549;SDS011;11441;57.164;-2.120;2023-09-19T10:43:31;1.00;;;0.60;;
22549;SDS011;11441;57.164;-2.120;2023-09-19T10:46:02;1.60;;;0.40;;
22549;SDS011;11441;57.164;-2.120;2023-09-19T10:48:33;1.40;;;0.43;;
22549;SDS011;11441;57.164;-2.120;2023-09-19T10:53:41;2.25;;;0.30;;
22549;SDS011;11441;57.164;-2.120;2023-09-19T10:56:27;0.30;;;0.22;;
22549;SDS011;11441;57.164;-2.120;2023-09-19T10:59:08;1.20;;;0.50;;
22549;SDS011;11441;57.164;-2.120;2023-09-19T11:01:41;0.20;;;0.20;;
22549;SDS011;11441;57.164;-2.120;2023-09-19T11:04:21;0.65;;;0.40;;
22549;SDS011;11441;57.164;-2.120;2023-09-19T11:09:51;0.98;;;0.50;;
22549;SDS011;11441;57.164;-2.120;2023-09-19T11:15:02;1.63;;;0.30;;
22549;SDS011;11441;57.164;-2.120;2023-09-19T11:17:35;2.08;;;0.63;;
22549;SDS011;11441;57.164;-2.120;2023-09-19T11:30:35;1.05;;;0.20;;
22549;SDS011;11441;57.164;-2.120;2023-09-19T11:33:17;0.20;;;0.10;;
22549;SDS011;11441;57.164;-2.120;2023-09-19T11:36:34;0.20;;;0.20;;
22549;SDS011;11441;57.164;-2.120;2023-09-19T11:43:47;0.68;;;0.22;;
22549;SDS011;11441;57.164;-2.120;2023-09-19T11:46:21;0.35;;;0.30;;
22549;SDS011;11441;57.164;-2.120;2023-09-19T11:48:48;0.43;;;0.40;;
22549;SDS011;11441;57.164;-2.120;2023-09-19T11:51:17;2.05;;;0.40;;
22549;SDS011;11441;57.164;-2.120;2023-09-19T11:53:55;0.30;;;0.30;;
22549;SDS011;11441;57.164;-2.120;2023-09-19T11:56:27;1.35;;;0.40;;
22549;SDS011;11441;57.164;-2.120;2023-09-19T11:58:55;1.98;;;0.40;;
22549;SDS011;11441;57.164;-2.120;2023-09-19T12:01:33;0.65;;;0.30;;
22549;SDS011;11441;57.164;-2.120;2023-09-19T12:04:02;0.95;;;0.30;;
22549;SDS011;11441;57.164;-2.120;2023-09-19T12:06:31;2.13;;;0.52;;
22549;SDS011;11441;57.164;-2.120;2023-09-19T12:09:02;1.05;;;0.40;;
22549;SDS011;11441;57.164;-2.120;2023-09-19T12:11:33;0.40;;;0.40;;
22549;SDS011;11441;57.164;-2.120;2023-09-19T12:14:09;2.83;;;0.30;;
22549;SDS011;11441;57.164;-2.120;2023-09-19T12:16:36;0.50;;;0.30;;
22549;SDS011;11441;57.164;-2.120;2023-09-19T12:19:20;0.75;;;0.25;;
22549;SDS011;11441;57.164;-2.120;2023-09-19T12:21:59;0.30;;;0.30;;
22549;SDS011;11441;57.164;-2.120;2023-09-19T12:24:32;0.82;;;0.40;;
22549;SDS011;11441;57.164;-2.120;2023-09-19T12:27:00;2.38;;;0.30;;
22549;SDS011;11441;57.164;-2.120;2023-09-19T12:29:28;1.00;;;0.20;;
22549;SDS011;11441;57.164;-2.120;2023-09-19T12:31:56;1.45;;;0.60;;
22549;SDS011;11441;57.164;-2.120;2023-09-19T12:34:28;6.93;;;0.52;;
22549;SDS011;11441;57.164;-2.120;2023-09-19T12:37:13;0.82;;;0.40;;
22549;SDS011;11441;57.164;-2.120;2023-09-19T12:40:31;1.77;;;0.30;;
22549;SDS011;11441;57.164;-2.120;2023-09-19T12:42:56;1.30;;;0.40;;
22549;SDS011;11441;57.164;-2.120;2023-09-19T12:45:25;2.17;;;0.30;;
22549;SDS011;11441;57.164;-2.120;2023-09-19T12:53:45;1.50;;;0.30;;
22549;SDS011;11441;57.164;-2.120;2023-09-19T12:56:16;0.80;;;0.50;;
22549;SDS011;11441;57.164;-2.120;2023-09-19T12:58:48;2.28;;;0.25;;
22549;SDS011;11441;57.164;-2.120;2023-09-19T13:01:22;0.73;;;0.43;;
22549;SDS011;11441;57.164;-2.120;2023-09-19T13:04:13;1.88;;;0.40;;
22549;SDS011;11441;57.164;-2.120;2023-09-19T13:06:48;1.92;;;0.40;;
22549;SDS011;11441;57.164;-2.120;2023-09-19T13:09:17;0.98;;;0.20;;
22549;SDS011;11441;57.164;-2.120;2023-09-19T13:11:44;1.38;;;0.20;;
22549;SDS011;11441;57.164;-2.120;2023-09-19T13:14:21;0.52;;;0.30;;
22549;SDS011;11441;57.164;-2.120;2023-09-19T13:19:43;3.53;;;0.30;;
22549;SDS011;11441;57.164;-2.120;2023-09-19T13:22:40;0.20;;;0.20;;
22549;SDS011;11441;57.164;-2.120;2023-09-19T13:25:21;0.32;;;0.20;;
22549;SDS011;11441;57.164;-2.120;2023-09-19T13:27:49;0.30;;;0.20;;
22549;SDS011;11441;57.164;-2.120;2023-09-19T13:30:21;0.20;;;0.20;;
22549;SDS011;11441;57.164;-2.120;2023-09-19T13:33:03;0.17;;;0.17;;
22549;SDS011;11441;57.164;-2.120;2023-09-19T13:35:33;1.35;;;0.20;;
22549;SDS011;11441;57.164;-2.120;2023-09-19T13:38:00;0.10;;;0.10;;
22549;SDS011;11441;57.164;-2.120;2023-09-19T13:40:27;0.20;;;0.20;;
22549;SDS011;11441;57.164;-2.120;2023-09-19T13:42:58;0.20;;;0.20;;
22549;SDS011;11441;57.164;-2.120;2023-09-19T13:45:25;1.85;;;0.40;;
22549;SDS011;11441;57.164;-2.120;2023-09-19T13:47:53;1.45;;;0.30;;
22549;SDS011;11441;57.164;-2.120;2023-09-19T13:50:20;1.50;;;0.30;;
22549;SDS011;11441;57.164;-2.120;2023-09-19T13:52:51;0.25;;;0.20;;
22549;SDS011;11441;57.164;-2.120;2023-09-19T13:55:18;0.63;;;0.20;;
22549;SDS011;11441;57.164;-2.120;2023-09-19T13:57:47;1.17;;;0.40;;
22549;SDS011;11441;57.164;-2.120;2023-09-19T14:00:21;0.30;;;0.30;;
22549;SDS011;11441;57.164;-2.120;2023-09-19T14:02:49;1.38;;;0.32;;
22549;SDS011;11441;57.164;-2.120;2023-09-19T14:05:18;0.20;;;0.20;;
22549;SDS011;11441;57.164;-2.120;2023-09-19T14:07:45;0.20;;;0.20;;
22549;SDS011;11441;57.164;-2.120;2023-09-19T14:10:13;0.22;;;0.22;;
22549;SDS011;11441;57.164;-2.120;2023-09-19T14:12:40;2.13;;;0.30;;
22549;SDS011;11441;57.164;-2.120;2023-09-19T14:15:11;0.57;;;0.20;;
22549;SDS011;11441;57.164;-2.120;2023-09-19T14:17:38;2.88;;;0.60;;
22549;SDS011;11441;57.164;-2.120;2023-09-19T14:20:09;0.93;;;0.50;;
22549;SDS011;11441;57.164;-2.120;2023-09-19T14:22:37;0.52;;;0.32;;
22549;SDS011;11441;57.164;-2.120;2023-09-19T14:25:04;1.05;;;0.60;;
22549;SDS011;11441;57.164;-2.120;2023-09-19T14:27:31;1.83;;;0.52;;
22549;SDS011;11441;57.164;-2.120;2023-09-19T14:29:58;1.50;;;0.90;;
22549;SDS011;11441;57.164;-2.120;2023-09-19T14:32:25;0.82;;;0.70;;
22549;SDS011;11441;57.164;-2.120;2023-09-19T14:34:52;1.38;;;0.60;;
22549;SDS011;11441;57.164;-2.120;2023-09-19T14:37:19;0.70;;;0.47;;
22549;SDS011;11441;57.164;-2.120;2023-09-19T14:39:47;2.60;;;0.50;;
22549;SDS011;11441;57.164;-2.120;2023-09-19T14:42:14;1.73;;;0.50;;
22549;SDS011;11441;57.164;-2.120;2023-09-19T14:44:44;1.02;;;0.63;;
22549;SDS011;11441;57.164;-2.120;2023-09-19T14:47:13;0.70;;;0.35;;
22549;SDS011;11441;57.164;-2.120;2023-09-19T14:49:40;0.93;;;0.80;;
22549;SDS011;11441;57.164;-2.120;2023-09-19T14:52:08;1.45;;;0.60;;
22549;SDS011;11441;57.164;-2.120;2023-09-19T14:54:36;1.23;;;0.55;;
22549;SDS011;11441;57.164;-2.120;2023-09-19T14:57:08;1.17;;;0.60;;
22549;SDS011;11441;57.164;-2.120;2023-09-19T14:59:35;1.70;;;0.60;;
22549;SDS011;11441;57.164;-2.120;2023-09-19T15:02:03;1.65;;;0.63;;
22549;SDS011;11441;57.164;-2.120;2023-09-19T15:04:31;0.70;;;0.40;;
22549;SDS011;11441;57.164;-2.120;2023-09-19T15:06:58;0.30;;;0.22;;
22549;SDS011;11441;57.164;-2.120;2023-09-19T15:09:26;1.95;;;0.60;;
22549;SDS011;11441;57.164;-2.120;2023-09-19T15:11:53;1.50;;;0.68;;
22549;SDS011;11441;57.164;-2.120;2023-09-19T15:14:20;0.55;;;0.52;;
22549;SDS011;11441;57.164;-2.120;2023-09-19T15:16:51;0.65;;;0.30;;
22549;SDS011;11441;57.164;-2.120;2023-09-19T15:19:18;0.73;;;0.40;;
22549;SDS011;11441;57.164;-2.120;2023-09-19T15:21:45;0.70;;;0.50;;
22549;SDS011;11441;57.164;-2.120;2023-09-19T15:24:12;1.35;;;0.57;;
22549;SDS011;11441;57.164;-2.120;2023-09-19T15:26:39;2.83;;;0.65;;
22549;SDS011;11441;57.164;-2.120;2023-09-19T15:29:09;0.98;;;0.60;;
22549;SDS011;11441;57.164;-2.120;2023-09-19T15:31:36;0.40;;;0.20;;
22549;SDS011;11441;57.164;-2.120;2023-09-19T15:34:03;0.85;;;0.40;;
22549;SDS011;11441;57.164;-2.120;2023-09-19T15:36:32;0.47;;;0.40;;
22549;SDS011;11441;57.164;-2.120;2023-09-19T15:39:02;1.80;;;0.52;;
22549;SDS011;11441;57.164;-2.120;2023-09-19T15:44:01;0.32;;;0.32;;
22549;SDS011;11441;57.164;-2.120;2023-09-19T15:46:31;2.58;;;0.40;;